Allentown, Georgia
Current Conditions -  °F | °C
As of 6:35 AM on Thursday 27 Nov 2014 (Local Time) from KDBN Reporting Station
Clear Clear  
Wind Chill:   Ceiling: Unl
Heat Index:   Visibility: 10mi
Dew Point:   Wind: 6mph
Humidity: 87%   Direction: 240°WSW
Pressure: 30.2"   Gusts: NA
Location:  32.59°N, 83.23°W
Report Text: KDBN 271135Z AUTO 24005KT 10SM CLR 04/02 A3020 RMK AO2
Loading
Personal Weather Stations






























Interactive Weather Map New forecast layout! Learn more

10-Day Weather Forecast

Advertisements
Track Severe Weather on mobile